Time;durP1;ratioP1;P1;durP2;ratioP2;P2;SDS_P1;SDS_P2;PMS_P1;PMS_P2;Temp;Humidity;BMP_temperature;BMP_pressure;BME280_temperature;BME280_humidity;BME280_pressure;Samples;Min_cycle;Max_cycle;Signal;HPM_P1;HPM_P2
2023/10/13 00:00:36;;;;;;;10.63;5.70;;;14.90;99.90;;;;;;455989;259;28894;-73
2023/10/13 00:02:33;;;;;;;8.47;5.30;;;14.90;99.90;;;;;;455786;255;28944;-72
2023/10/13 00:04:37;;;;;;;15.70;7.10;;;14.90;99.90;;;;;;456015;260;28858;-72
2023/10/13 00:06:37;;;;;;;18.47;7.77;;;14.90;99.90;;;;;;455816;261;28897;-73
2023/10/13 00:08:37;;;;;;;9.73;6.00;;;14.80;99.90;;;;;;455995;259;29440;-72
2023/10/13 00:10:38;;;;;;;9.30;5.50;;;14.80;99.90;;;;;;455860;259;29350;-72
2023/10/13 00:12:39;;;;;;;10.47;5.97;;;14.90;99.90;;;;;;455843;259;29553;-72
2023/10/13 00:14:45;;;;;;;11.73;6.17;;;14.80;99.90;;;;;;455925;259;28861;-72
2023/10/13 00:17:07;;;;;;;21.50;7.27;;;14.90;99.90;;;;;;455259;259;28880;-72
2023/10/13 00:19:05;;;;;;;14.57;7.13;;;14.90;99.90;;;;;;455300;260;29373;-73
2023/10/13 00:21:15;;;;;;;17.93;8.07;;;15.00;99.90;;;;;;455671;259;28630;-72
2023/10/13 00:23:06;;;;;;;11.40;6.70;;;15.10;99.90;;;;;;455045;261;28966;-73
2023/10/13 00:25:12;;;;;;;11.40;6.77;;;15.20;99.90;;;;;;455960;259;28901;-73
2023/10/13 00:27:13;;;;;;;16.60;7.40;;;15.20;99.90;;;;;;456053;259;28929;-72
2023/10/13 00:29:16;;;;;;;10.63;6.87;;;15.30;99.90;;;;;;456026;259;28895;-73
2023/10/13 00:31:12;;;;;;;11.80;7.10;;;15.30;99.90;;;;;;456024;259;28911;-72
2023/10/13 00:33:12;;;;;;;12.90;7.63;;;15.30;99.90;;;;;;455991;259;28949;-72
2023/10/13 00:35:35;;;;;;;14.53;7.83;;;15.20;99.90;;;;;;456021;259;29400;-74
2023/10/13 00:37:19;;;;;;;9.70;5.80;;;15.20;99.90;;;;;;454466;260;29393;-73
2023/10/13 00:39:19;;;;;;;12.60;6.97;;;15.20;99.90;;;;;;456002;260;28927;-72
2023/10/13 00:41:35;;;;;;;12.47;6.70;;;15.20;99.90;;;;;;456012;259;28984;-73
2023/10/13 00:45:23;;;;;;;7.27;5.90;;;15.10;99.90;;;;;;456011;259;29416;-72
2023/10/13 00:49:41;;;;;;;11.97;6.57;;;15.10;99.90;;;;;;456016;259;28925;-72
2023/10/13 00:51:46;;;;;;;13.17;7.20;;;15.10;99.90;;;;;;455991;260;29399;-74
2023/10/13 00:53:44;;;;;;;9.30;7.10;;;15.10;99.90;;;;;;455997;259;29336;-72
2023/10/13 00:55:44;;;;;;;9.97;6.47;;;15.10;99.90;;;;;;455961;259;28907;-73
2023/10/13 00:57:47;;;;;;;9.53;5.97;;;15.10;99.90;;;;;;455998;259;28872;-72
2023/10/13 00:59:47;;;;;;;12.30;6.70;;;15.10;99.90;;;;;;456007;259;28871;-72
2023/10/13 01:01:53;;;;;;;9.00;6.67;;;15.20;99.90;;;;;;455994;260;28919;-72
2023/10/13 01:03:50;;;;;;;13.97;6.33;;;15.20;99.90;;;;;;456010;259;28880;-72
2023/10/13 01:05:54;;;;;;;7.73;5.70;;;15.20;99.90;;;;;;456009;259;28924;-73
2023/10/13 01:07:56;;;;;;;12.47;7.13;;;15.20;99.90;;;;;;455998;259;28888;-72
2023/10/13 01:09:54;;;;;;;11.43;6.37;;;15.20;99.90;;;;;;455801;261;29300;-72
2023/10/13 01:11:55;;;;;;;20.13;7.20;;;15.20;99.90;;;;;;455951;259;29513;-73
2023/10/13 01:13:56;;;;;;;9.53;6.50;;;15.20;99.90;;;;;;455972;259;29396;-72
2023/10/13 01:15:57;;;;;;;13.53;7.07;;;15.30;99.90;;;;;;455969;259;28901;-72
2023/10/13 01:17:58;;;;;;;12.30;6.13;;;15.30;99.90;;;;;;456013;259;28917;-74
2023/10/13 01:19:59;;;;;;;18.73;7.60;;;15.20;99.90;;;;;;455978;259;28865;-72
2023/10/13 01:22:05;;;;;;;21.53;6.90;;;15.20;99.90;;;;;;455983;259;28895;-73
2023/10/13 01:24:07;;;;;;;10.17;6.13;;;15.10;99.90;;;;;;456020;259;29313;-73
2023/10/13 01:26:06;;;;;;;13.53;6.90;;;15.10;99.90;;;;;;455970;259;29331;-73
2023/10/13 01:28:09;;;;;;;10.57;6.63;;;15.10;99.90;;;;;;455973;259;29404;-72
2023/10/13 01:30:22;;;;;;;9.63;5.83;;;15.10;99.90;;;;;;455965;259;28975;-73
2023/10/13 01:32:16;;;;;;;12.40;7.70;;;15.00;99.90;;;;;;456016;259;28865;-73
2023/10/13 01:34:21;;;;;;;8.93;5.77;;;15.00;99.90;;;;;;455995;259;28920;-72
2023/10/13 01:36:21;;;;;;;10.33;6.03;;;14.90;99.90;;;;;;455990;259;28890;-73
2023/10/13 01:38:22;;;;;;;9.10;5.90;;;14.90;99.90;;;;;;455787;259;28893;-74
2023/10/13 01:40:28;;;;;;;11.10;5.50;;;14.90;99.90;;;;;;455890;259;28950;-72
2023/10/13 01:42:25;;;;;;;8.20;5.63;;;14.80;99.90;;;;;;455676;260;29026;-73
2023/10/13 01:44:32;;;;;;;13.10;6.87;;;14.80;99.90;;;;;;455986;259;28860;-73
2023/10/13 01:46:36;;;;;;;11.33;6.53;;;14.70;99.90;;;;;;455976;255;29477;-73
2023/10/13 01:48:38;;;;;;;8.30;5.83;;;14.70;99.90;;;;;;455975;259;29315;-72
2023/10/13 01:50:36;;;;;;;14.80;6.50;;;14.70;99.90;;;;;;456009;259;28942;-72
2023/10/13 01:52:37;;;;;;;8.17;5.87;;;14.70;99.90;;;;;;456000;259;28937;-73
2023/10/13 01:54:41;;;;;;;9.80;6.10;;;14.70;99.90;;;;;;455991;259;28910;-72
2023/10/13 01:56:45;;;;;;;9.60;6.20;;;14.70;99.90;;;;;;455990;259;28870;-72
2023/10/13 01:58:47;;;;;;;11.23;5.63;;;14.70;99.90;;;;;;455992;259;29333;-72
2023/10/13 02:00:48;;;;;;;10.47;6.17;;;14.70;99.90;;;;;;455978;259;28891;-73
2023/10/13 02:02:50;;;;;;;7.33;5.30;;;14.70;99.90;;;;;;456008;260;29327;-72
2023/10/13 02:04:55;;;;;;;9.87;5.97;;;14.70;99.90;;;;;;456047;259;28854;-73
2023/10/13 02:06:52;;;;;;;10.77;5.90;;;14.70;99.90;;;;;;456026;259;28920;-73
2023/10/13 02:08:57;;;;;;;13.90;6.70;;;14.70;99.90;;;;;;456021;259;28469;-73
2023/10/13 02:10:53;;;;;;;11.80;7.27;;;14.80;99.90;;;;;;456004;259;28925;-73
2023/10/13 02:12:55;;;;;;;9.73;5.53;;;14.80;99.90;;;;;;456003;259;28876;-72
2023/10/13 02:15:01;;;;;;;9.60;5.80;;;14.80;99.90;;;;;;455999;259;29404;-72
2023/10/13 02:17:23;;;;;;;13.10;6.13;;;14.90;99.90;;;;;;455997;259;29379;-73
2023/10/13 02:19:04;;;;;;;10.80;6.20;;;14.90;99.90;;;;;;454524;261;29374;-72
2023/10/13 02:21:04;;;;;;;13.43;6.00;;;14.80;99.90;;;;;;456038;259;28877;-73
2023/10/13 02:23:01;;;;;;;14.60;5.40;;;14.80;99.90;;;;;;456087;259;28979;-72
2023/10/13 02:25:05;;;;;;;10.77;5.57;;;14.80;99.90;;;;;;456019;259;28911;-72
2023/10/13 02:27:09;;;;;;;9.40;5.80;;;14.80;99.90;;;;;;456021;259;28922;-73
2023/10/13 02:29:08;;;;;;;12.40;6.43;;;14.80;99.90;;;;;;456052;259;28869;-72
2023/10/13 02:31:11;;;;;;;10.43;5.50;;;14.80;99.90;;;;;;455985;259;29259;-72
2023/10/13 02:33:11;;;;;;;12.07;5.90;;;14.80;99.90;;;;;;456008;259;28867;-72
2023/10/13 02:35:17;;;;;;;8.40;5.73;;;14.80;99.90;;;;;;455968;259;28902;-72
2023/10/13 02:37:20;;;;;;;12.40;7.10;;;14.90;99.90;;;;;;455965;259;29399;-72
2023/10/13 02:39:26;;;;;;;10.83;6.30;;;14.90;99.90;;;;;;455886;259;28905;-72
2023/10/13 02:41:28;;;;;;;9.37;5.67;;;14.90;99.90;;;;;;455944;259;28847;-72
2023/10/13 02:43:33;;;;;;;12.97;6.27;;;14.90;99.90;;;;;;455971;259;28902;-73
2023/10/13 02:45:29;;;;;;;8.60;6.37;;;14.90;99.90;;;;;;455988;259;28947;-73
2023/10/13 02:47:31;;;;;;;9.43;6.50;;;14.80;99.90;;;;;;455958;259;28966;-72
2023/10/13 02:49:33;;;;;;;17.60;6.40;;;14.80;99.90;;;;;;455960;259;28965;-72
2023/10/13 02:51:37;;;;;;;14.07;6.70;;;14.80;99.90;;;;;;455828;260;28854;-73
2023/10/13 02:53:34;;;;;;;12.43;7.00;;;14.80;99.90;;;;;;455808;261;29301;-73
2023/10/13 02:55:38;;;;;;;12.00;6.00;;;14.70;99.90;;;;;;456021;259;29371;-73
2023/10/13 02:57:39;;;;;;;13.87;6.27;;;14.70;99.90;;;;;;456002;259;29314;-72
2023/10/13 02:59:46;;;;;;;9.53;5.50;;;14.70;99.90;;;;;;455783;259;28983;-73
2023/10/13 03:01:42;;;;;;;11.57;6.20;;;14.70;99.90;;;;;;455975;259;28894;-73
2023/10/13 03:03:44;;;;;;;9.27;5.83;;;14.60;99.90;;;;;;455978;260;28524;-73
2023/10/13 03:05:45;;;;;;;9.43;6.00;;;14.50;99.90;;;;;;455987;259;28871;-73
2023/10/13 03:07:46;;;;;;;11.33;5.60;;;14.50;99.90;;;;;;455999;259;28902;-73
2023/10/13 03:09:57;;;;;;;14.90;6.97;;;14.40;99.90;;;;;;456002;259;29330;-73
2023/10/13 03:11:54;;;;;;;10.80;5.90;;;14.40;99.90;;;;;;456001;259;28985;-73
2023/10/13 03:13:55;;;;;;;8.27;5.30;;;14.40;99.90;;;;;;456001;260;28522;-73
2023/10/13 03:15:57;;;;;;;7.97;5.50;;;14.50;99.90;;;;;;455987;260;28977;-73
2023/10/13 03:18:02;;;;;;;10.53;6.40;;;14.50;99.90;;;;;;456030;260;29410;-74
2023/10/13 03:19:59;;;;;;;8.03;5.30;;;14.50;99.90;;;;;;455824;261;29362;-73
2023/10/13 03:22:08;;;;;;;11.53;6.20;;;14.50;99.90;;;;;;456041;259;29381;-74
2023/10/13 03:24:06;;;;;;;8.40;5.90;;;14.50;99.90;;;;;;456043;259;28868;-73
2023/10/13 03:26:08;;;;;;;7.87;5.07;;;14.60;99.90;;;;;;456020;259;28877;-72
2023/10/13 03:28:07;;;;;;;8.60;5.60;;;14.60;99.90;;;;;;455989;259;28876;-74
2023/10/13 03:30:14;;;;;;;7.20;5.70;;;14.60;99.90;;;;;;455996;259;28945;-73
2023/10/13 03:32:12;;;;;;;8.03;5.60;;;14.60;99.90;;;;;;456048;259;29496;-73
2023/10/13 03:34:14;;;;;;;13.53;6.60;;;14.50;99.90;;;;;;456023;259;28879;-73
2023/10/13 03:36:55;;;;;;;13.20;6.10;;;14.50;99.90;;;;;;456035;259;28981;-73
2023/10/13 03:38:19;;;;;;;9.83;5.67;;;14.50;99.90;;;;;;456104;259;28895;-72
2023/10/13 03:42:22;;;;;;;12.47;6.57;;;14.50;99.90;;;;;;456031;259;28888;-73
2023/10/13 03:44:23;;;;;;;11.37;5.80;;;14.50;99.90;;;;;;455999;259;28985;-72
2023/10/13 03:46:26;;;;;;;12.07;6.30;;;14.50;99.90;;;;;;456002;259;28870;-73
2023/10/13 03:50:29;;;;;;;12.03;6.93;;;14.50;99.90;;;;;;456021;259;28611;-74
2023/10/13 03:52:35;;;;;;;9.47;5.80;;;14.50;99.90;;;;;;456013;259;28981;-73
2023/10/13 03:54:34;;;;;;;12.10;5.70;;;14.50;99.90;;;;;;456035;259;28961;-73
2023/10/13 03:56:39;;;;;;;12.70;6.87;;;14.50;99.90;;;;;;456026;259;28973;-73
2023/10/13 03:58:45;;;;;;;11.23;5.93;;;14.60;99.90;;;;;;456014;259;28904;-74
2023/10/13 04:00:45;;;;;;;6.80;5.50;;;14.60;99.90;;;;;;456025;259;28907;-73
2023/10/13 04:02:52;;;;;;;14.53;6.63;;;14.60;99.90;;;;;;456027;259;28948;-73
2023/10/13 04:04:53;;;;;;;12.03;5.43;;;14.60;99.90;;;;;;456011;259;28892;-73
2023/10/13 04:07:13;;;;;;;11.53;6.90;;;14.60;99.90;;;;;;456000;259;28994;-73
2023/10/13 04:18:29;;;;;;;14.90;6.10;;;14.70;99.90;;;;;;452697;262;29473;-73
2023/10/13 04:20:27;;;;;;;13.03;6.17;;;14.70;99.90;;;;;;453234;262;28898;-73
2023/10/13 04:22:20;;;;;;;10.03;6.03;;;14.70;99.90;;;;;;453385;262;28897;-73
2023/10/13 04:26:23;;;;;;;11.87;5.57;;;14.70;99.90;;;;;;453484;262;28667;-75
2023/10/13 04:28:34;;;;;;;10.50;5.60;;;14.70;99.90;;;;;;453436;262;29382;-74
2023/10/13 04:30:47;;;;;;;12.80;6.07;;;14.70;99.90;;;;;;453453;262;28903;-73
2023/10/13 04:32:38;;;;;;;10.83;5.40;;;14.80;99.90;;;;;;453461;262;28905;-74
2023/10/13 04:34:39;;;;;;;13.60;6.03;;;14.80;99.90;;;;;;453449;262;28944;-74
2023/10/13 04:36:44;;;;;;;12.27;6.10;;;14.70;99.90;;;;;;453430;262;28639;-73
2023/10/13 04:38:55;;;;;;;11.03;5.63;;;14.80;99.90;;;;;;453450;258;28896;-74
2023/10/13 04:40:44;;;;;;;7.43;5.40;;;14.80;99.90;;;;;;453458;262;29423;-73
2023/10/13 04:42:50;;;;;;;19.70;6.40;;;14.80;99.90;;;;;;453417;262;29446;-73
2023/10/13 04:48:47;;;;;;;13.27;6.20;;;14.80;99.90;;;;;;457933;259;28885;-74
2023/10/13 04:50:51;;;;;;;12.13;6.00;;;14.80;99.90;;;;;;455987;258;29351;-74
2023/10/13 04:53:27;;;;;;;20.83;6.10;;;14.80;99.90;;;;;;455977;259;29816;-74
2023/10/13 04:54:54;;;;;;;10.70;5.73;;;14.80;99.90;;;;;;454439;261;29322;-74
2023/10/13 05:04:21;;;;;;;9.50;6.03;;;14.60;99.90;;;;;;450635;261;30052;-73
2023/10/13 05:06:09;;;;;;;12.00;5.53;;;14.60;99.90;;;;;;454498;261;29414;-73
2023/10/13 05:49:49;;;;;;;11.37;6.80;;;15.20;99.90;;;;;;458119;259;28995;-73
2023/10/13 05:51:46;;;;;;;11.20;6.20;;;15.20;99.90;;;;;;458282;257;29054;-73
2023/10/13 06:28:45;;;;;;;9.43;6.10;;;15.70;99.90;;;;;;458211;259;28969;-73
2023/10/13 06:30:47;;;;;;;11.10;6.90;;;15.70;99.90;;;;;;458217;258;28956;-74
2023/10/13 06:32:46;;;;;;;8.63;5.80;;;15.80;99.90;;;;;;458179;259;29393;-73
2023/10/13 06:34:47;;;;;;;11.40;6.80;;;15.90;99.90;;;;;;458167;259;29409;-74
2023/10/13 06:36:48;;;;;;;11.33;6.87;;;15.90;99.90;;;;;;458179;259;29377;-74
2023/10/13 06:39:36;;;;;;;8.40;6.60;;;15.90;99.90;;;;;;458165;259;28922;-74
2023/10/13 06:40:52;;;;;;;9.03;6.70;;;15.90;99.90;;;;;;457924;257;29069;-73
2023/10/13 06:42:53;;;;;;;10.43;7.47;;;16.00;99.90;;;;;;458184;258;29008;-73
2023/10/13 06:44:54;;;;;;;11.30;6.67;;;16.00;99.90;;;;;;458160;259;28960;-74
2023/10/13 06:46:55;;;;;;;10.33;7.00;;;16.10;99.90;;;;;;458166;259;28968;-74
2023/10/13 06:48:59;;;;;;;13.13;6.83;;;16.10;99.90;;;;;;458159;259;29013;-74
2023/10/13 06:51:03;;;;;;;9.50;6.90;;;16.10;99.90;;;;;;458215;258;29025;-74
2023/10/13 06:53:01;;;;;;;12.10;6.83;;;16.20;99.90;;;;;;458276;258;29397;-73
2023/10/13 06:55:05;;;;;;;9.07;6.40;;;16.20;99.90;;;;;;458203;258;29524;-74
2023/10/13 06:57:03;;;;;;;16.70;7.23;;;16.20;99.90;;;;;;458245;257;29546;-74
2023/10/13 06:59:06;;;;;;;12.43;7.50;;;16.30;99.90;;;;;;458193;258;28910;-74
2023/10/13 07:01:06;;;;;;;11.63;6.50;;;16.40;99.90;;;;;;458181;258;29008;-74
2023/10/13 07:03:17;;;;;;;7.40;6.03;;;16.40;99.90;;;;;;458142;259;28971;-74
2023/10/13 07:05:11;;;;;;;12.37;6.87;;;16.40;99.90;;;;;;458251;257;29025;-73
2023/10/13 07:07:10;;;;;;;9.80;6.80;;;16.40;99.90;;;;;;458191;258;29015;-73
2023/10/13 07:09:19;;;;;;;8.80;6.60;;;16.50;99.90;;;;;;458186;259;29050;-74
2023/10/13 07:11:32;;;;;;;9.00;6.77;;;16.60;99.90;;;;;;458250;258;29033;-74
2023/10/13 07:13:17;;;;;;;10.73;6.80;;;16.70;99.90;;;;;;458524;258;29475;-74
2023/10/13 07:17:33;;;;;;;9.60;6.37;;;16.80;99.90;;;;;;458167;259;28956;-74
2023/10/13 07:19:21;;;;;;;14.50;7.50;;;16.90;99.90;;;;;;458177;257;28974;-73
2023/10/13 07:21:34;;;;;;;8.57;6.50;;;16.90;99.90;;;;;;458082;259;28960;-74
2023/10/13 07:23:35;;;;;;;10.23;6.67;;;16.90;99.90;;;;;;458181;259;28925;-74
2023/10/13 07:25:37;;;;;;;9.10;6.77;;;17.00;99.90;;;;;;458138;259;28951;-74
2023/10/13 07:27:37;;;;;;;9.10;6.40;;;17.00;99.90;;;;;;458153;259;29046;-74
2023/10/13 07:29:42;;;;;;;8.33;6.80;;;17.00;99.90;;;;;;458170;259;29015;-74
2023/10/13 07:31:44;;;;;;;12.17;6.70;;;17.00;99.90;;;;;;458193;258;28951;-74
2023/10/13 07:33:41;;;;;;;10.37;6.93;;;17.10;99.90;;;;;;458192;258;30689;-73
2023/10/13 07:35:43;;;;;;;8.17;6.40;;;17.20;99.90;;;;;;458146;259;29465;-74
2023/10/13 07:37:44;;;;;;;11.00;6.60;;;17.10;99.90;;;;;;458151;259;29463;-74
2023/10/13 07:39:50;;;;;;;7.40;6.30;;;17.10;99.90;;;;;;458157;259;29001;-73
2023/10/13 07:41:51;;;;;;;9.77;6.93;;;17.10;99.90;;;;;;458220;258;28957;-74
2023/10/13 07:43:48;;;;;;;7.93;6.40;;;17.10;99.90;;;;;;458243;258;29049;-75
2023/10/13 07:45:53;;;;;;;10.47;7.27;;;17.20;99.90;;;;;;458171;259;28938;-74
2023/10/13 07:47:53;;;;;;;8.73;6.20;;;17.30;99.90;;;;;;458147;259;28916;-74
2023/10/13 07:49:56;;;;;;;11.70;6.67;;;17.20;99.90;;;;;;458164;259;28934;-74
2023/10/13 07:51:57;;;;;;;12.63;6.40;;;17.20;99.90;;;;;;458179;258;28992;-74
2023/10/13 07:53:57;;;;;;;7.27;6.03;;;17.10;99.90;;;;;;458149;253;28914;-74
2023/10/13 07:56:03;;;;;;;11.53;7.67;;;17.00;99.90;;;;;;458153;259;29428;-74
2023/10/13 07:57:59;;;;;;;9.13;6.20;;;17.00;99.90;;;;;;458238;258;29511;-74
2023/10/13 08:00:25;;;;;;;7.60;6.30;;;17.00;99.90;;;;;;458180;259;29454;-74
2023/10/13 08:02:33;;;;;;;9.13;6.20;;;16.90;99.90;;;;;;458494;257;28939;-74
2023/10/13 08:04:22;;;;;;;11.10;6.93;;;17.00;99.90;;;;;;458576;258;28923;-73
2023/10/13 08:08:18;;;;;;;12.10;6.30;;;16.90;99.90;;;;;;458169;259;28915;-73
2023/10/13 08:10:24;;;;;;;8.87;6.07;;;16.90;99.90;;;;;;458181;259;28943;-74
2023/10/13 08:12:23;;;;;;;11.07;6.80;;;16.90;99.90;;;;;;458254;258;28966;-73
2023/10/13 08:14:29;;;;;;;8.80;6.23;;;16.90;99.90;;;;;;458147;256;29043;-74
2023/10/13 08:16:45;;;;;;;7.80;5.70;;;17.00;99.90;;;;;;458158;258;29386;-73
2023/10/13 08:18:33;;;;;;;8.80;6.70;;;17.00;99.90;;;;;;458507;258;29460;-74
2023/10/13 08:20:38;;;;;;;7.83;5.93;;;17.00;99.90;;;;;;458160;259;28910;-74
2023/10/13 08:22:38;;;;;;;7.30;6.00;;;17.00;99.90;;;;;;458208;258;29564;-74
2023/10/13 08:31:22;;;;;;;13.63;7.23;;;17.10;99.90;;;;;;458168;259;29389;-73
2023/10/13 08:33:27;;;;;;;10.70;6.73;;;17.10;99.90;;;;;;458160;259;28919;-74
2023/10/13 08:37:56;;;;;;;11.43;7.20;;;17.20;99.90;;;;;;458157;259;29383;-73
2023/10/13 08:42:11;;;;;;;10.93;7.37;;;17.30;99.90;;;;;;457594;260;29478;-74
2023/10/13 08:44:03;;;;;;;7.50;5.83;;;17.40;99.90;;;;;;457916;257;29465;-75
2023/10/13 08:45:58;;;;;;;12.30;6.80;;;17.40;99.90;;;;;;458252;257;29396;-73
2023/10/13 08:48:26;;;;;;;10.10;6.17;;;17.40;99.90;;;;;;458167;259;28963;-74
2023/10/13 08:50:10;;;;;;;15.80;6.30;;;17.40;99.90;;;;;;458020;257;29011;-74
2023/10/13 08:52:38;;;;;;;8.13;6.33;;;17.50;99.90;;;;;;458316;258;28958;-74
2023/10/13 08:54:18;;;;;;;6.67;5.87;;;17.50;99.90;;;;;;458567;258;31450;-73
2023/10/13 08:56:34;;;;;;;9.77;6.13;;;17.50;99.90;;;;;;458313;257;29036;-73
2023/10/13 08:58:24;;;;;;;8.20;6.00;;;17.50;99.90;;;;;;458456;258;28912;-73
2023/10/13 09:00:28;;;;;;;7.73;6.30;;;17.50;99.90;;;;;;458162;258;29054;-73
2023/10/13 09:04:59;;;;;;;9.47;6.50;;;17.70;99.90;;;;;;458147;259;28908;-74
2023/10/13 09:09:09;;;;;;;9.10;6.27;;;17.90;99.90;;;;;;458170;259;28928;-74
2023/10/13 09:11:13;;;;;;;11.43;6.43;;;18.00;99.90;;;;;;458140;259;28957;-74
2023/10/13 09:13:20;;;;;;;13.80;6.70;;;18.20;99.90;;;;;;458152;259;28908;-74
2023/10/13 09:19:17;;;;;;;11.33;6.33;;;18.30;99.90;;;;;;458164;259;29028;-74
2023/10/13 09:22:05;;;;;;;9.47;6.07;;;18.40;99.90;;;;;;458154;259;29311;-75
2023/10/13 09:23:45;;;;;;;8.83;6.60;;;18.50;99.90;;;;;;457917;257;29026;-73
2023/10/13 09:25:21;;;;;;;10.73;6.23;;;18.70;99.90;;;;;;458354;256;28991;-73
2023/10/13 09:27:26;;;;;;;7.97;6.10;;;18.80;99.90;;;;;;458171;258;29466;-73
2023/10/13 09:29:24;;;;;;;12.60;6.20;;;18.80;99.90;;;;;;458211;258;29398;-74
2023/10/13 09:31:27;;;;;;;8.90;5.40;;;18.90;99.90;;;;;;458180;259;29464;-74
2023/10/13 09:33:50;;;;;;;9.73;5.80;;;18.90;99.90;;;;;;458133;258;29022;-74
2023/10/13 09:35:43;;;;;;;9.83;6.13;;;19.00;99.90;;;;;;458301;258;28921;-74
2023/10/13 09:37:46;;;;;;;10.23;5.90;;;19.20;99.90;;;;;;458170;259;29066;-74
2023/10/13 09:39:52;;;;;;;6.63;5.50;;;19.20;99.90;;;;;;458206;258;29344;-75
2023/10/13 09:41:52;;;;;;;7.40;5.73;;;19.30;99.90;;;;;;458237;257;29004;-74
2023/10/13 09:43:51;;;;;;;13.63;6.93;;;19.40;99.90;;;;;;458273;258;28960;-74
2023/10/13 09:46:15;;;;;;;26.63;6.87;;;19.50;99.90;;;;;;458173;258;29376;-73
2023/10/13 09:48:08;;;;;;;7.23;5.57;;;19.50;99.90;;;;;;458314;258;28930;-74
2023/10/13 09:50:15;;;;;;;9.67;6.60;;;19.50;99.90;;;;;;458199;259;28975;-74
2023/10/13 09:52:16;;;;;;;11.03;6.60;;;19.60;99.90;;;;;;458237;258;28922;-74
2023/10/13 09:54:12;;;;;;;8.17;6.30;;;19.70;99.90;;;;;;458223;258;28981;-74
2023/10/13 09:56:19;;;;;;;8.30;5.50;;;19.70;99.90;;;;;;458154;259;28973;-74
2023/10/13 09:58:28;;;;;;;8.27;6.07;;;19.70;99.90;;;;;;458167;259;29386;-74
2023/10/13 10:02:29;;;;;;;7.00;5.10;;;19.80;99.90;;;;;;458164;259;29540;-72
2023/10/13 10:04:35;;;;;;;13.60;5.63;;;19.80;99.90;;;;;;458169;259;29462;-74
2023/10/13 10:06:39;;;;;;;7.77;5.50;;;19.80;99.90;;;;;;458237;258;29469;-74
2023/10/13 10:08:38;;;;;;;7.90;5.50;;;19.80;99.90;;;;;;458284;258;29063;-74
2023/10/13 10:10:36;;;;;;;9.43;5.17;;;19.80;99.90;;;;;;458191;257;29036;-75
2023/10/13 10:12:35;;;;;;;11.43;5.70;;;19.80;99.90;;;;;;458099;258;28917;-74
2023/10/13 10:14:37;;;;;;;8.10;5.27;;;19.90;99.90;;;;;;458087;259;28945;-74
2023/10/13 10:16:40;;;;;;;6.53;5.20;;;19.90;99.90;;;;;;458101;259;28984;-75
2023/10/13 10:18:39;;;;;;;9.10;6.43;;;19.90;99.90;;;;;;458144;258;28944;-73
2023/10/13 10:20:44;;;;;;;5.67;5.00;;;19.90;99.90;;;;;;458148;259;28963;-74
2023/10/13 10:22:49;;;;;;;8.17;5.00;;;20.00;99.90;;;;;;458119;257;28950;-75
2023/10/13 10:24:52;;;;;;;7.70;5.80;;;20.00;99.90;;;;;;458128;259;29488;-74
2023/10/13 10:26:51;;;;;;;6.33;5.03;;;20.10;99.90;;;;;;458167;258;28968;-75
2023/10/13 10:28:52;;;;;;;10.50;5.77;;;20.20;99.90;;;;;;458165;258;29019;-74
2023/10/13 10:30:52;;;;;;;6.57;4.60;;;20.20;99.90;;;;;;458177;259;28993;-75
2023/10/13 10:32:54;;;;;;;5.70;5.20;;;20.20;99.90;;;;;;458178;259;28948;-74
2023/10/13 10:34:55;;;;;;;7.73;5.33;;;20.30;99.90;;;;;;458172;259;28925;-74
2023/10/13 10:36:58;;;;;;;12.37;7.53;;;20.30;99.90;;;;;;458160;259;29032;-75
2023/10/13 10:39:00;;;;;;;8.07;5.70;;;20.30;99.90;;;;;;458199;258;29017;-74
2023/10/13 10:41:03;;;;;;;5.97;5.23;;;20.50;99.90;;;;;;458185;259;29365;-74
2023/10/13 10:43:08;;;;;;;7.27;5.37;;;20.50;99.90;;;;;;458168;258;29476;-74
2023/10/13 10:45:09;;;;;;;7.50;6.23;;;20.50;99.90;;;;;;458177;258;29284;-74
2023/10/13 10:47:08;;;;;;;7.30;5.13;;;20.50;99.90;;;;;;458069;258;29067;-74
2023/10/13 10:49:09;;;;;;;7.50;5.70;;;20.70;99.90;;;;;;458171;259;28969;-74
2023/10/13 10:53:18;;;;;;;9.07;5.03;;;20.80;99.90;;;;;;458198;259;29360;-74
2023/10/13 10:55:20;;;;;;;7.70;4.80;;;20.70;99.90;;;;;;458056;259;29397;-74
2023/10/13 10:57:26;;;;;;;10.00;5.30;;;20.90;99.90;;;;;;458139;259;28976;-74
2023/10/13 10:59:25;;;;;;;7.03;5.17;;;20.90;99.90;;;;;;458327;258;29018;-74
2023/10/13 11:01:23;;;;;;;8.03;5.00;;;21.00;99.90;;;;;;458182;258;29037;-75
2023/10/13 11:03:24;;;;;;;10.30;5.67;;;21.10;99.90;;;;;;458161;259;28955;-74
2023/10/13 11:05:32;;;;;;;9.60;5.60;;;21.20;99.90;;;;;;458175;259;28908;-74
2023/10/13 11:07:27;;;;;;;10.33;5.30;;;21.20;99.90;;;;;;458243;257;28967;-75
2023/10/13 11:09:31;;;;;;;8.60;5.23;;;21.30;99.90;;;;;;458174;259;29007;-74
2023/10/13 11:11:34;;;;;;;7.53;4.73;;;21.30;99.90;;;;;;458135;257;28948;-74
2023/10/13 11:13:31;;;;;;;6.67;4.30;;;21.30;99.90;;;;;;458213;258;29496;-76
2023/10/13 11:15:34;;;;;;;7.23;5.33;;;21.30;99.90;;;;;;458183;259;29411;-74
2023/10/13 11:17:42;;;;;;;8.30;5.23;;;21.40;99.90;;;;;;457993;259;29395;-74
2023/10/13 11:19:43;;;;;;;9.83;5.00;;;21.40;99.90;;;;;;458018;259;29536;-74
2023/10/13 11:21:44;;;;;;;9.80;5.10;;;21.40;99.90;;;;;;458085;259;28964;-74
2023/10/13 11:23:45;;;;;;;12.23;5.27;;;21.40;99.90;;;;;;458165;259;28913;-74
2023/10/13 11:25:48;;;;;;;5.53;4.30;;;21.50;99.90;;;;;;458135;259;28961;-74
2023/10/13 11:29:52;;;;;;;13.93;5.33;;;21.60;99.90;;;;;;458195;259;29012;-74
2023/10/13 11:31:58;;;;;;;14.63;5.90;;;21.70;99.90;;;;;;458157;259;28983;-74
2023/10/13 11:33:56;;;;;;;8.90;4.37;;;21.80;99.90;;;;;;458199;258;28992;-74
2023/10/13 11:35:56;;;;;;;9.50;5.23;;;21.70;99.90;;;;;;458173;258;28926;-74
2023/10/13 11:38:13;;;;;;;9.43;4.60;;;21.60;99.90;;;;;;458153;259;29478;-75
2023/10/13 11:39:58;;;;;;;6.03;4.87;;;21.70;99.90;;;;;;458250;257;28912;-74
2023/10/13 11:42:00;;;;;;;6.63;4.73;;;21.80;99.90;;;;;;458165;259;29508;-74
2023/10/13 11:44:43;;;;;;;6.20;4.20;;;21.80;99.90;;;;;;458141;259;29444;-74
2023/10/13 11:48:14;;;;;;;7.70;4.53;;;22.00;99.90;;;;;;458118;259;28973;-74
2023/10/13 11:50:11;;;;;;;10.80;5.43;;;22.00;99.90;;;;;;458220;258;29032;-74
2023/10/13 11:52:26;;;;;;;8.80;4.53;;;22.00;99.90;;;;;;458155;259;29014;-74
2023/10/13 11:54:14;;;;;;;9.53;4.67;;;22.10;99.90;;;;;;458211;257;29064;-74
2023/10/13 11:56:17;;;;;;;11.00;4.70;;;22.20;99.90;;;;;;458104;259;28951;-76
2023/10/13 12:01:01;;;;;;;7.50;4.73;;;22.10;99.90;;;;;;471250;251;28872;-75
2023/10/13 12:05:12;;;;;;;8.87;4.50;;;22.10;99.90;;;;;;472019;251;28912;-72
2023/10/13 12:07:20;;;;;;;6.90;4.50;;;22.10;99.90;;;;;;471990;252;28924;-74
2023/10/13 12:11:31;;;;;;;12.33;4.73;;;22.10;99.90;;;;;;471994;252;29332;-74
2023/10/13 12:13:32;;;;;;;6.73;4.50;;;22.10;99.90;;;;;;472015;252;29365;-74
2023/10/13 12:15:48;;;;;;;4.90;4.00;;;22.20;99.90;;;;;;472006;252;29517;-74
2023/10/13 12:17:39;;;;;;;7.63;5.00;;;22.10;99.90;;;;;;471960;252;28910;-75
2023/10/13 12:19:40;;;;;;;6.23;3.90;;;22.20;99.90;;;;;;472008;252;28961;-76
2023/10/13 12:21:43;;;;;;;5.10;4.13;;;22.20;99.90;;;;;;472010;252;28896;-74
2023/10/13 12:23:45;;;;;;;7.70;4.67;;;22.20;99.90;;;;;;471971;252;28932;-75
2023/10/13 12:25:57;;;;;;;6.70;4.33;;;22.20;99.90;;;;;;471988;252;28805;-75
2023/10/13 12:27:57;;;;;;;10.80;4.30;;;22.20;99.90;;;;;;471989;252;28917;-74
2023/10/13 12:30:06;;;;;;;5.93;4.30;;;22.20;99.90;;;;;;472001;252;28947;-74
2023/10/13 12:32:14;;;;;;;6.70;4.20;;;22.30;99.90;;;;;;471967;252;28946;-74
2023/10/13 12:34:29;;;;;;;7.03;4.40;;;22.20;99.90;;;;;;472008;248;29058;-75
2023/10/13 12:36:30;;;;;;;7.40;4.60;;;22.30;99.90;;;;;;471973;252;28809;-74
2023/10/13 12:49:52;;;;;;;8.73;4.10;;;22.70;99.90;;;;;;472014;251;28942;-74
2023/10/13 12:51:51;;;;;;;8.10;4.40;;;22.90;99.90;;;;;;471987;252;28989;-74
2023/10/13 12:53:52;;;;;;;6.27;4.40;;;22.80;99.90;;;;;;472005;252;28955;-74
2023/10/13 12:55:53;;;;;;;6.77;4.37;;;22.80;99.90;;;;;;472001;252;28868;-74
2023/10/13 12:57:54;;;;;;;8.20;4.47;;;22.70;99.90;;;;;;471973;252;29006;-74
2023/10/13 12:59:56;;;;;;;7.50;4.23;;;22.80;99.90;;;;;;471988;252;28940;-74
2023/10/13 13:01:57;;;;;;;7.00;4.07;;;22.70;99.90;;;;;;471978;252;28947;-74
2023/10/13 13:03:58;;;;;;;6.80;4.20;;;22.70;99.90;;;;;;472007;252;28971;-74
2023/10/13 13:06:03;;;;;;;14.43;4.30;;;22.70;99.90;;;;;;471974;252;28943;-75
2023/10/13 13:08:01;;;;;;;9.40;4.23;;;22.80;99.90;;;;;;471970;252;28911;-75
2023/10/13 13:10:02;;;;;;;7.37;4.33;;;22.90;99.90;;;;;;471987;252;29391;-75